Time;durP1;ratioP1;P1;durP2;ratioP2;P2;SDS_P1;SDS_P2;PMS_P1;PMS_P2;Temp;Humidity;BMP_temperature;BMP_pressure;BME280_temperature;BME280_humidity;BME280_pressure;Samples;Min_cycle;Max_cycle;Signal;HPM_P1;HPM_P2
2023/05/14 00:03:41;;;;;;;4.73;4.30;;;;;;;16.51;47.84;99780.13;10359608;28;20241;-69
2023/05/14 00:08:43;;;;;;;5.00;4.10;;;;;;;16.37;47.75;99747.03;10359602;28;20259;-70
2023/05/14 00:13:45;;;;;;;5.10;4.60;;;;;;;15.31;50.02;99790.75;10370471;28;20229;-70
2023/05/14 00:18:46;;;;;;;7.03;5.23;;;;;;;14.45;50.91;99724.56;10369008;28;20237;-69
2023/05/14 00:23:48;;;;;;;5.80;4.83;;;;;;;14.68;50.98;99775.25;10368298;28;20291;-69
2023/05/14 00:28:50;;;;;;;5.43;4.83;;;;;;;13.80;53.25;99751.31;10363327;28;20632;-69
2023/05/14 00:33:51;;;;;;;5.37;4.70;;;;;;;13.31;54.53;99725.63;10372807;28;20248;-69
2023/05/14 00:38:53;;;;;;;11.53;5.50;;;;;;;12.70;55.92;99692.34;10366095;28;20245;-69
2023/05/14 00:43:54;;;;;;;6.10;5.53;;;;;;;13.58;53.88;99746.16;10364027;28;20241;-69
2023/05/14 00:48:57;;;;;;;6.13;5.53;;;;;;;13.43;54.77;99756.22;10364480;28;20751;-68
2023/05/14 00:53:59;;;;;;;5.50;5.00;;;;;;;14.27;52.77;99738.69;10361032;28;20716;-70
2023/05/14 00:59:01;;;;;;;6.00;5.50;;;;;;;12.89;55.50;99726.53;10367775;28;20231;-69
2023/05/14 01:04:04;;;;;;;6.20;5.60;;;;;;;12.24;56.41;99660.75;10361332;28;20237;-68
2023/05/14 01:09:17;;;;;;;6.43;5.83;;;;;;;12.21;57.83;99731.72;10365138;28;20300;-71
2023/05/14 01:14:21;;;;;;;6.63;5.90;;;;;;;12.68;56.40;99767.72;10366453;28;20311;-71
2023/05/14 01:19:50;;;;;;;6.87;6.17;;;;;;;12.68;56.22;99765.03;10367236;28;20245;-71
2023/05/14 01:24:52;;;;;;;7.27;5.73;;;;;;;11.86;57.11;99707.56;10364800;28;20245;-71
2023/05/14 01:30:14;;;;;;;7.20;6.50;;;;;;;12.47;56.43;99762.44;10364022;28;20317;-71
2023/05/14 01:35:16;;;;;;;7.03;6.27;;;;;;;;;;10367267;28;20229;-71
2023/05/14 01:40:18;;;;;;;6.30;5.67;;;;;;;13.06;54.93;99786.09;10360482;28;20237;-71
2023/05/14 01:45:20;;;;;;;6.83;6.17;;;;;;;13.79;53.56;99773.88;10362696;28;20229;-71
2023/05/14 01:50:22;;;;;;;8.90;6.00;;;;;;;13.83;52.97;99783.19;10357962;28;20307;-71
2023/05/14 01:55:24;;;;;;;6.80;6.10;;;;;;;14.17;53.02;99816.31;10369082;28;20908;-71
2023/05/14 02:00:26;;;;;;;6.23;5.63;;;;;;;14.17;52.33;99814.47;10363664;28;20237;-72
2023/05/14 02:05:27;;;;;;;6.47;5.60;;;;;;;14.27;51.98;99805.13;10358335;28;20242;-72
2023/05/14 02:10:29;;;;;;;6.97;6.10;;;;;;;13.52;53.41;99807.97;10362462;28;20247;-72
2023/05/14 02:15:31;;;;;;;5.60;4.63;;;;;;;13.24;54.45;99798.94;10364088;28;20720;-72
2023/05/14 02:20:32;;;;;;;6.80;5.50;;;;;;;13.50;54.29;99818.06;10361372;28;20240;-71
2023/05/14 02:25:34;;;;;;;6.17;5.57;;;;;;;13.57;53.16;99798.25;10358715;28;20343;-72
2023/05/14 02:30:36;;;;;;;6.57;5.70;;;;;;;12.92;53.98;99773.63;10352949;28;20233;-72
2023/05/14 02:35:37;;;;;;;5.47;4.97;;;;;;;15.02;51.25;99792.16;10365078;28;20236;-72
2023/05/14 02:40:39;;;;;;;7.90;5.03;;;;;;;14.31;51.95;99784.88;10354012;28;20241;-72
2023/05/14 02:45:41;;;;;;;5.50;5.00;;;;;;;14.16;52.16;99822.75;10364257;28;20734;-72
2023/05/14 02:50:42;;;;;;;5.30;4.80;;;;;;;13.78;53.03;99832.19;10362738;28;20787;-72
2023/05/14 02:55:44;;;;;;;5.47;4.97;;;;;;;15.12;50.59;99803.28;10363019;28;20239;-72
2023/05/14 03:00:45;;;;;;;5.47;4.97;;;;;;;13.58;52.65;99807.97;10358465;28;20267;-71
2023/05/14 03:05:48;;;;;;;5.80;5.23;;;;;;;14.87;51.58;99832.00;10357759;28;20285;-72
2023/05/14 03:10:49;;;;;;;6.00;5.23;;;;;;;14.99;50.62;99816.81;10361702;28;20621;-72
2023/05/14 03:15:53;;;;;;;6.63;5.57;;;;;;;13.57;53.15;99814.38;10362263;28;20904;-72
2023/05/14 03:20:55;;;;;;;6.00;5.40;;;;;;;15.17;50.17;99807.19;10356963;28;21015;-72
2023/05/14 03:25:57;;;;;;;7.10;5.27;;;;;;;13.06;53.52;99750.34;10362084;28;20668;-72
2023/05/14 03:30:59;;;;;;;5.80;5.20;;;;;;;13.54;53.31;99813.97;10359934;28;20636;-72
2023/05/14 03:36:01;;;;;;;5.80;5.20;;;;;;;12.68;54.78;99773.09;10360362;28;20224;-71
2023/05/14 03:41:03;;;;;;;6.37;5.60;;;;;;;13.21;54.29;99820.88;10360919;28;20278;-71
2023/05/14 03:46:04;;;;;;;7.07;5.50;;;;;;;13.86;52.22;99788.16;10361820;28;20221;-72
2023/05/14 03:51:06;;;;;;;6.10;5.50;;;;;;;13.80;52.40;99815.84;10370202;28;20615;-71
2023/05/14 03:56:08;;;;;;;7.00;5.30;;;;;;;14.12;52.34;99834.94;10372601;28;20307;-72
2023/05/14 04:01:09;;;;;;;6.30;5.47;;;;;;;14.59;51.66;99819.59;10363993;28;20306;-72
2023/05/14 04:06:11;;;;;;;5.67;4.93;;;;;;;14.16;52.09;99831.66;10368309;28;20245;-72
2023/05/14 04:11:12;;;;;;;6.33;5.30;;;;;;;13.47;52.37;99797.81;10363044;28;20598;-71
2023/05/14 04:16:14;;;;;;;5.57;5.07;;;;;;;14.96;49.61;99809.16;10367814;28;20217;-71
2023/05/14 04:21:16;;;;;;;5.57;4.60;;;;;;;14.09;51.90;99841.59;10365316;28;20241;-71
2023/05/14 04:26:18;;;;;;;5.70;4.80;;;;;;;15.06;50.61;99839.16;10364884;28;20241;-71
2023/05/14 04:31:19;;;;;;;5.43;4.77;;;;;;;15.80;48.49;99836.97;10365889;28;20233;-72
2023/05/14 04:36:21;;;;;;;5.67;5.10;;;;;;;12.48;54.72;99721.16;10365420;28;20311;-72
2023/05/14 04:41:22;;;;;;;5.87;5.13;;;;;;;15.07;51.11;99827.38;10363542;28;20244;-71
2023/05/14 04:46:24;;;;;;;5.93;5.33;;;;;;;14.52;51.66;99851.09;10364960;28;20232;-72
2023/05/14 04:51:26;;;;;;;5.73;5.13;;;;;;;13.66;52.94;99813.16;10372114;28;20240;-72
2023/05/14 04:56:28;;;;;;;6.10;5.50;;;;;;;13.45;52.83;99816.00;10366907;28;20362;-72
2023/05/14 05:01:30;;;;;;;6.37;5.77;;;;;;;13.45;53.22;99827.59;10360470;28;20316;-71
2023/05/14 05:06:31;;;;;;;5.70;5.10;;;;;;;15.40;50.00;99839.84;10363186;28;20260;-72
2023/05/14 05:11:33;;;;;;;5.60;4.87;;;;;;;15.17;49.15;99824.22;10365235;28;20241;-71
2023/05/14 05:16:35;;;;;;;5.40;4.90;;;;;;;14.21;49.06;99813.00;10367174;28;20343;-72
2023/05/14 05:21:39;;;;;;;5.10;4.60;;;;;;;14.57;49.04;99832.44;10363141;28;20272;-69
2023/05/14 05:26:41;;;;;;;5.20;4.33;;;;;;;15.37;48.02;99847.53;10364372;28;20243;-69
2023/05/14 05:31:42;;;;;;;5.27;4.30;;;;;;;15.18;48.42;99852.81;10362565;28;20904;-71
2023/05/14 05:36:44;;;;;;;5.03;4.53;;;;;;;13.51;49.93;99764.09;10360071;28;20312;-71
2023/05/14 05:41:46;;;;;;;5.90;4.50;;;;;;;15.81;47.43;99848.59;10359534;28;20241;-69
2023/05/14 05:46:47;;;;;;;5.00;4.50;;;;;;;16.07;46.45;99855.66;10360656;28;20241;-69
2023/05/14 05:51:49;;;;;;;5.80;4.93;;;;;;;14.78;48.18;99842.16;10363262;28;20237;-70
2023/05/14 05:56:51;;;;;;;5.17;4.67;;;;;;;15.96;46.89;99840.16;10359335;28;20257;-70
2023/05/14 06:01:52;;;;;;;7.30;5.20;;;;;;;14.63;48.09;99814.59;10362514;28;20331;-69
2023/05/14 06:06:54;;;;;;;4.87;4.47;;;;;;;16.23;46.89;99838.94;10363594;28;20736;-69
2023/05/14 06:11:56;;;;;;;5.37;4.70;;;;;;;15.02;47.39;99772.47;10357989;28;20233;-69
2023/05/14 06:16:58;;;;;;;4.93;4.43;;;;;;;14.97;47.88;99791.97;10359610;28;21834;-69
2023/05/14 06:21:59;;;;;;;5.07;4.57;;;;;;;14.67;48.52;99784.34;10361569;28;20317;-70
2023/05/14 06:27:01;;;;;;;6.80;4.90;;;;;;;15.76;48.33;99813.31;10360550;28;20268;-69
2023/05/14 06:32:03;;;;;;;5.27;4.77;;;;;;;15.88;47.62;99812.41;10358513;28;20247;-68
2023/05/14 06:37:05;;;;;;;5.23;4.73;;;;;;;16.39;47.10;99807.03;10358155;28;20236;-69
2023/05/14 06:42:07;;;;;;;5.83;5.13;;;;;;;14.42;49.03;99791.47;10360952;28;20232;-69
2023/05/14 06:47:09;;;;;;;5.67;4.67;;;;;;;14.92;48.82;99805.25;10359652;28;20598;-69
2023/05/14 06:52:11;;;;;;;5.40;4.90;;;;;;;15.03;47.76;99779.50;10360469;28;20229;-69
2023/05/14 06:57:12;;;;;;;5.03;4.40;;;;;;;16.10;46.64;99797.72;10358119;28;20227;-68
2023/05/14 07:02:14;;;;;;;5.43;4.80;;;;;;;16.86;45.76;99799.25;10361860;28;21034;-68
2023/05/14 07:07:19;;;;;;;6.17;4.47;;;;;;;16.03;46.68;99787.81;10357295;28;20239;-68
2023/05/14 07:12:21;;;;;;;5.43;4.83;;;;;;;16.47;46.23;99785.16;10358935;28;20786;-67
2023/05/14 07:17:23;;;;;;;6.93;5.20;;;;;;;16.44;46.81;99791.81;10359112;28;20311;-68
2023/05/14 07:22:24;;;;;;;5.20;4.70;;;;;;;17.11;45.63;99803.78;10365201;28;20337;-67
2023/05/14 07:27:26;;;;;;;6.50;4.83;;;;;;;16.70;46.25;99756.63;10363301;28;20230;-68
2023/05/14 07:32:27;;;;;;;5.83;4.83;;;;;;;17.78;44.79;99802.88;10365102;28;20243;-69
2023/05/14 07:37:29;;;;;;;5.30;4.80;;;;;;;16.80;46.89;99738.00;10364365;28;20293;-68
2023/05/14 07:42:31;;;;;;;7.60;4.87;;;;;;;17.27;45.57;99702.28;10361106;28;20291;-68
2023/05/14 07:47:38;;;;;;;5.73;4.93;;;;;;;17.81;45.49;99710.38;10366070;28;20326;-69
2023/05/14 07:52:40;;;;;;;6.80;6.10;;;;;;;17.27;46.14;99673.34;10370748;28;20796;-68
2023/05/14 07:57:41;;;;;;;6.47;5.53;;;;;;;16.19;47.66;99697.31;10369085;28;20233;-69
2023/05/14 08:02:43;;;;;;;6.13;5.27;;;;;;;17.24;44.93;99651.34;10364626;28;20284;-69
2023/05/14 08:07:45;;;;;;;6.30;5.70;;;;;;;17.28;45.11;99672.28;10362001;28;20964;-69
2023/05/14 08:12:47;;;;;;;5.93;5.13;;;;;;;17.60;44.99;99707.16;10367671;28;20238;-69
2023/05/14 08:17:48;;;;;;;5.90;5.30;;;;;;;19.07;43.23;99695.47;10361071;28;20233;-70
2023/05/14 08:22:50;;;;;;;5.27;4.77;;;;;;;17.84;44.13;99647.66;10366915;28;20247;-69
2023/05/14 08:27:53;;;;;;;7.40;4.93;;;;;;;17.48;44.47;99679.28;10366862;28;20238;-69
2023/05/14 08:32:54;;;;;;;6.93;6.13;;;;;;;18.05;44.86;99643.53;10358145;28;20612;-68
2023/05/14 08:37:56;;;;;;;5.83;4.90;;;;;;;18.71;42.87;99627.00;10366211;28;20805;-68
2023/05/14 08:42:59;;;;;;;5.27;4.77;;;;;;;18.24;43.92;99626.06;10363061;28;20233;-67
2023/05/14 08:48:07;;;;;;;6.87;5.00;;;;;;;17.64;43.47;99621.78;10364061;28;20721;-67
2023/05/14 08:53:09;;;;;;;5.67;5.03;;;;;;;18.28;42.83;99583.06;10364588;28;20351;-68
2023/05/14 08:58:11;;;;;;;5.23;4.17;;;;;;;17.78;42.74;99602.59;10365110;28;20232;-67
2023/05/14 09:03:13;;;;;;;4.60;4.20;;;;;;;18.93;42.48;99600.03;10366089;28;20246;-67
2023/05/14 09:08:15;;;;;;;4.50;3.93;;;;;;;18.89;42.26;99607.00;10366352;28;20282;-68
2023/05/14 09:13:17;;;;;;;5.83;5.10;;;;;;;18.16;43.19;99620.22;10367674;28;20751;-68
2023/05/14 09:18:19;;;;;;;5.60;5.03;;;;;;;19.06;41.01;99555.53;10358892;28;20233;-68
2023/05/14 09:23:21;;;;;;;7.10;4.90;;;;;;;19.55;41.69;99583.72;10359269;28;20573;-68
2023/05/14 09:28:23;;;;;;;5.00;3.93;;;;;;;18.91;41.95;99577.75;10364569;28;21076;-68
2023/05/14 09:33:27;;;;;;;4.37;3.80;;;;;;;17.64;41.89;99610.16;10361571;28;20229;-67
2023/05/14 09:38:32;;;;;;;4.90;4.40;;;;;;;17.92;42.73;99552.59;10358722;28;20324;-68
2023/05/14 09:43:33;;;;;;;4.80;4.30;;;;;;;16.28;44.50;99583.66;10362897;28;20240;-68
2023/05/14 09:48:35;;;;;;;4.00;3.70;;;;;;;17.98;41.73;99538.06;10360148;28;20241;-68
2023/05/14 09:53:37;;;;;;;3.87;3.43;;;;;;;17.95;41.35;99545.84;10366194;28;20295;-68
2023/05/14 09:58:39;;;;;;;6.63;4.20;;;;;;;17.28;42.15;99576.84;10362008;28;20233;-67
2023/05/14 10:03:40;;;;;;;8.03;5.60;;;;;;;18.18;42.36;99559.31;10361288;28;20804;-68
2023/05/14 10:08:48;;;;;;;4.43;3.73;;;;;;;18.60;41.21;99563.66;10360241;28;20243;-67
2023/05/14 10:14:02;;;;;;;4.33;3.43;;;;;;;18.96;41.00;99534.47;10357674;28;20294;-68
2023/05/14 10:19:09;;;;;;;4.50;3.53;;;;;;;18.48;41.34;99509.53;10359637;28;20237;-67
2023/05/14 10:24:11;;;;;;;4.93;3.70;;;;;;;17.42;42.96;99583.66;10362718;28;20700;-68
2023/05/14 10:29:13;;;;;;;3.60;3.30;;;;;;;19.09;41.04;99504.31;10360565;28;20868;-67
2023/05/14 10:34:32;;;;;;;4.73;4.00;;;;;;;17.14;41.98;99527.56;10352821;28;20236;-67
2023/05/14 10:39:41;;;;;;;8.67;6.60;;;;;;;18.10;41.82;99538.03;10358918;28;20251;-68
2023/05/14 10:44:56;;;;;;;5.82;3.75;;;;;;;18.74;40.13;99486.41;10360340;28;20240;-67
2023/05/14 10:50:03;;;;;;;3.90;3.30;;;;;;;17.22;40.51;99519.09;10356626;28;20636;-68
2023/05/14 10:55:14;;;;;;;5.17;3.70;;;;;;;17.99;40.28;99533.50;10362282;28;20581;-68
2023/05/14 11:00:16;;;;;;;3.50;3.20;;;;;;;18.01;40.22;99532.19;10354804;28;20992;-68
2023/05/14 11:06:27;;;;;;;3.58;3.28;;;;;;;17.22;43.28;99564.25;10404322;28;20814;-70
2023/05/14 11:11:28;;;;;;;8.23;7.07;;;;;;;16.38;43.62;99559.66;10321614;28;20876;-68
2023/05/14 11:16:30;;;;;;;3.40;3.10;;;;;;;18.08;41.63;99522.06;10356951;28;20228;-70
2023/05/14 11:21:32;;;;;;;3.40;3.10;;;;;;;17.35;42.00;99551.31;10349094;28;20279;-69
2023/05/14 11:26:34;;;;;;;3.30;3.00;;;;;;;18.56;40.56;99501.00;10348943;28;20238;-70
2023/05/14 11:31:36;;;;;;;4.25;2.58;;;;;;;18.06;40.60;99459.19;10355879;28;20785;-70
2023/05/14 11:36:39;;;;;;;3.05;2.40;;;;;;;18.89;39.60;99456.00;10355805;28;20320;-70
2023/05/14 11:41:44;;;;;;;2.60;2.40;;;;;;;18.32;39.60;99467.81;10351112;28;20240;-70
2023/05/14 11:46:56;;;;;;;2.58;2.38;;;;;;;18.68;39.61;99473.84;10353279;28;20320;-70
2023/05/14 11:51:59;;;;;;;2.95;2.65;;;;;;;18.02;41.61;99514.06;10355540;28;20257;-69
2023/05/14 11:57:06;;;;;;;3.45;2.75;;;;;;;19.48;39.90;99422.13;10354910;28;20234;-69
2023/05/14 12:02:10;;;;;;;3.35;3.05;;;;;;;19.16;39.00;99456.16;10347451;28;20288;-69
2023/05/14 12:07:14;;;;;;;3.53;3.22;;;;;;;19.45;39.80;99419.91;10340391;28;20228;-69
2023/05/14 12:12:21;;;;;;;3.55;2.97;;;;;;;19.13;40.65;99380.75;10340412;28;20226;-67
2023/05/14 12:17:22;;;;;;;3.88;3.47;;;;;;;17.12;41.48;99438.59;10312350;28;21120;-68
2023/05/14 12:22:24;;;;;;;3.38;3.08;;;;;;;17.91;41.21;99491.38;10308417;28;20269;-70
2023/05/14 12:27:28;;;;;;;3.50;3.20;;;;;;;18.24;41.63;99460.88;10310398;28;20229;-67
2023/05/14 12:32:34;;;;;;;3.15;2.72;;;;;;;18.63;40.94;99424.97;10309066;28;20589;-69
2023/05/14 12:37:38;;;;;;;4.18;3.15;;;;;;;18.41;42.17;99444.69;10305644;28;20230;-68
2023/05/14 12:42:40;;;;;;;4.22;3.35;;;;;;;18.77;41.55;99379.38;10313496;28;20226;-68
2023/05/14 12:47:41;;;;;;;3.50;3.20;;;;;;;19.17;41.23;99383.75;10298353;28;20273;-68
2023/05/14 12:52:43;;;;;;;4.05;3.38;;;;;;;18.72;41.49;99423.47;10283767;28;22562;-67
2023/05/14 12:57:45;;;;;;;3.75;3.28;;;;;;;17.41;42.03;99398.09;10309650;28;20249;-67
2023/05/14 13:02:47;;;;;;;3.83;3.30;;;;;;;18.90;40.71;99414.28;10311157;28;20320;-67
2023/05/14 13:07:48;;;;;;;4.75;3.50;;;;;;;17.11;41.91;99363.97;10311779;28;20375;-67
2023/05/14 13:12:51;;;;;;;3.47;3.17;;;;;;;17.56;42.16;99408.38;10315079;28;20233;-67
2023/05/14 13:17:53;;;;;;;3.67;3.37;;;;;;;19.41;40.85;99348.25;10318178;28;20229;-68
2023/05/14 13:22:54;;;;;;;3.28;2.80;;;;;;;16.98;41.59;99380.44;10314644;28;20325;-68
2023/05/14 13:27:56;;;;;;;3.00;2.80;;;;;;;19.66;40.66;99343.13;10306918;28;21451;-68
2023/05/14 13:32:58;;;;;;;3.03;2.50;;;;;;;19.33;39.51;99316.94;10318269;28;20242;-68
2023/05/14 13:38:00;;;;;;;3.03;2.63;;;;;;;16.52;40.79;99347.78;10318216;28;20230;-68
2023/05/14 13:43:01;;;;;;;3.43;2.53;;;;;;;19.01;39.05;99355.63;10314943;28;20234;-66
2023/05/14 13:48:03;;;;;;;2.55;2.38;;;;;;;19.51;39.06;99354.59;10293961;28;20230;-69
2023/05/14 13:53:05;;;;;;;2.97;2.75;;;;;;;18.32;40.06;99370.31;10268568;28;20266;-67
2023/05/14 13:58:08;;;;;;;2.50;2.28;;;;;;;18.84;39.63;99359.19;10288633;28;20749;-69
2023/05/14 14:03:10;;;;;;;2.78;2.58;;;;;;;17.74;39.95;99353.31;10317912;28;20740;-69
2023/05/14 14:08:12;;;;;;;3.35;3.05;;;;;;;18.01;40.27;99375.16;10321111;28;20231;-67
2023/05/14 14:13:22;;;;;;;2.83;2.63;;;;;;;19.45;39.52;99312.22;10316860;28;20223;-67
2023/05/14 14:18:23;;;;;;;3.33;3.03;;;;;;;18.55;39.66;99352.25;10317467;28;20229;-69
2023/05/14 14:23:25;;;;;;;3.38;3.08;;;;;;;18.00;40.25;99323.97;10319088;28;20237;-67
2023/05/14 14:28:27;;;;;;;3.22;2.92;;;;;;;18.33;41.14;99333.22;10316996;28;20295;-67
2023/05/14 14:33:28;;;;;;;2.80;2.60;;;;;;;17.21;40.99;99295.75;10327200;28;20234;-67
2023/05/14 14:38:30;;;;;;;3.35;2.90;;;;;;;17.21;40.59;99311.16;10310543;28;20237;-67
2023/05/14 14:43:42;;;;;;;3.10;2.90;;;;;;;18.45;39.79;99302.25;10308548;28;20234;-67
2023/05/14 14:48:43;;;;;;;4.15;2.50;;;;;;;19.68;38.47;99269.59;10310087;28;20230;-67
2023/05/14 14:53:45;;;;;;;3.15;2.33;;;;;;;19.19;37.96;99289.41;10305588;28;20513;-67
2023/05/14 14:58:47;;;;;;;2.70;2.30;;;;;;;18.64;38.05;99262.16;10308200;28;20234;-67
2023/05/14 15:03:48;;;;;;;2.60;2.40;;;;;;;17.59;39.18;99291.59;10285625;28;20923;-67
2023/05/14 15:08:50;;;;;;;2.83;2.63;;;;;;;18.76;38.39;99283.72;10296490;28;20311;-67
2023/05/14 15:13:52;;;;;;;3.28;2.97;;;;;;;19.16;38.67;99265.50;10317351;28;20623;-67
2023/05/14 15:18:53;;;;;;;3.00;2.80;;;;;;;17.88;39.57;99278.03;10320628;28;20232;-69
2023/05/14 15:23:55;;;;;;;3.20;2.88;;;;;;;19.04;38.46;99272.97;10317733;28;20284;-68
2023/05/14 15:28:57;;;;;;;2.87;2.60;;;;;;;17.91;39.54;99277.56;10308454;28;20284;-68
2023/05/14 15:33:59;;;;;;;2.95;2.75;;;;;;;19.47;38.38;99260.38;10306100;28;20233;-71
2023/05/14 15:39:01;;;;;;;3.17;2.88;;;;;;;17.67;40.99;99283.09;10311094;28;20240;-68
2023/05/14 15:44:03;;;;;;;3.88;3.47;;;;;;;19.73;39.32;99239.78;10305203;28;20237;-69
2023/05/14 15:49:04;;;;;;;2.92;2.63;;;;;;;20.47;38.41;99214.47;10285378;28;20230;-71
2023/05/14 15:54:06;;;;;;;2.90;2.70;;;;;;;19.27;37.84;99288.97;10275999;28;20234;-69
2023/05/14 15:59:08;;;;;;;3.00;2.80;;;;;;;18.74;38.07;99268.75;10276627;28;20235;-68
2023/05/14 16:04:09;;;;;;;3.05;2.85;;;;;;;21.26;36.92;99187.28;10299579;28;20237;-69
2023/05/14 16:09:11;;;;;;;2.90;2.70;;;;;;;20.31;37.44;99234.50;10312655;28;20238;-69
2023/05/14 16:14:13;;;;;;;3.35;3.05;;;;;;;21.60;37.35;99189.50;10310341;28;20222;-69
2023/05/14 16:19:15;;;;;;;3.60;3.30;;;;;;;19.44;39.82;99215.63;10313339;28;20233;-69
2023/05/14 16:24:17;;;;;;;3.60;2.95;;;;;;;19.79;39.61;99218.91;10313428;28;20234;-69
2023/05/14 16:29:19;;;;;;;3.40;3.10;;;;;;;21.13;38.04;99176.94;10285712;28;20242;-69
2023/05/14 16:34:20;;;;;;;3.33;3.03;;;;;;;20.60;38.26;99150.69;10322337;28;20226;-68
2023/05/14 16:39:22;;;;;;;3.20;2.90;;;;;;;19.66;38.96;99248.13;10318891;28;20276;-69
2023/05/14 16:44:23;;;;;;;3.65;3.25;;;;;;;19.79;38.90;99238.75;10321350;28;20604;-70
2023/05/14 16:49:25;;;;;;;4.68;3.00;;;;;;;20.00;38.67;99211.75;10323194;28;21698;-70
2023/05/14 16:54:27;;;;;;;4.57;3.17;;;;;;;21.28;37.59;99168.78;10319613;28;20743;-69
2023/05/14 16:59:28;;;;;;;4.32;3.22;;;;;;;21.04;38.06;99180.19;10319498;28;20244;-69
2023/05/14 17:04:31;;;;;;;2.90;2.70;;;;;;;20.97;37.58;99185.06;10309216;28;20242;-68
2023/05/14 17:09:33;;;;;;;3.40;3.10;;;;;;;20.04;38.19;99172.09;10319571;28;20867;-67
2023/05/14 17:14:34;;;;;;;3.22;3.03;;;;;;;19.62;39.25;99202.75;10319638;28;20748;-67
2023/05/14 17:19:36;;;;;;;3.10;2.90;;;;;;;19.75;38.76;99213.19;10321962;28;20285;-67
2023/05/14 17:24:38;;;;;;;3.13;2.65;;;;;;;21.14;37.36;99173.13;10320850;28;20242;-67
2023/05/14 17:29:39;;;;;;;3.33;2.97;;;;;;;20.45;38.18;99153.34;10323656;28;20233;-68
2023/05/14 17:34:41;;;;;;;3.05;2.85;;;;;;;20.26;38.16;99174.69;10319145;28;20241;-67
2023/05/14 17:39:43;;;;;;;4.07;2.80;;;;;;;19.74;38.99;99212.38;10321999;28;21085;-67
2023/05/14 17:44:44;;;;;;;3.40;2.80;;;;;;;16.89;41.78;99107.03;10319594;28;20250;-68
2023/05/14 17:49:46;;;;;;;2.75;2.55;;;;;;;18.24;40.45;99229.88;10319211;28;20710;-70
2023/05/14 17:54:48;;;;;;;4.68;3.20;;;;;;;19.91;38.70;99217.66;10317291;28;20667;-68
2023/05/14 17:59:49;;;;;;;3.00;2.72;;;;;;;20.00;38.46;99195.44;10318193;28;20259;-68
2023/05/14 18:04:51;;;;;;;2.83;2.63;;;;;;;20.54;38.39;99180.81;10314448;28;20792;-69
2023/05/14 18:09:52;;;;;;;3.58;2.70;;;;;;;18.99;39.15;99244.72;10324399;28;20238;-68
2023/05/14 18:14:54;;;;;;;3.38;3.08;;;;;;;20.46;37.70;99212.03;10318905;28;20279;-68
2023/05/14 18:19:56;;;;;;;3.10;2.90;;;;;;;20.61;37.59;99238.47;10318315;28;20238;-68
2023/05/14 18:24:57;;;;;;;5.63;2.83;;;;;;;20.64;37.77;99208.03;10321323;28;20227;-68
2023/05/14 18:29:59;;;;;;;3.15;2.75;;;;;;;20.59;38.07;99214.25;10314214;28;20233;-67
2023/05/14 18:35:01;;;;;;;3.25;2.72;;;;;;;20.82;37.92;99223.09;10290655;28;20308;-69
2023/05/14 18:40:10;;;;;;;3.10;2.80;;;;;;;19.37;39.29;99266.56;10310389;28;20230;-67
2023/05/14 18:45:11;;;;;;;2.92;2.65;;;;;;;20.50;37.98;99224.03;10284573;28;20226;-67
2023/05/14 18:50:13;;;;;;;3.15;2.95;;;;;;;18.95;39.97;99248.19;10303422;28;20259;-67
2023/05/14 18:55:15;;;;;;;3.78;2.65;;;;;;;19.97;38.67;99251.09;10296965;28;20319;-68
2023/05/14 19:00:16;;;;;;;3.30;3.00;;;;;;;20.81;38.28;99251.38;10295069;28;20320;-68
2023/05/14 19:05:18;;;;;;;2.83;2.63;;;;;;;20.77;37.95;99236.69;10300528;28;20241;-68
2023/05/14 19:10:20;;;;;;;3.40;2.90;;;;;;;19.48;39.57;99272.88;10315793;28;20325;-67
2023/05/14 19:15:22;;;;;;;3.53;3.23;;;;;;;18.82;40.66;99260.19;10280102;28;20245;-67
2023/05/14 19:20:24;;;;;;;3.30;3.00;;;;;;;18.13;41.12;99291.16;10301080;28;20654;-67
2023/05/14 19:25:26;;;;;;;3.90;3.50;;;;;;;17.71;41.35;99256.38;10311789;28;20230;-68
2023/05/14 19:30:28;;;;;;;3.50;3.20;;;;;;;17.41;42.12;99270.16;10287989;28;20244;-66
2023/05/14 19:35:30;;;;;;;3.47;3.17;;;;;;;18.17;41.96;99308.56;10296992;28;20237;-64
2023/05/14 19:40:32;;;;;;;3.60;3.30;;;;;;;19.35;39.96;99274.09;10317618;28;20250;-65
2023/05/14 19:45:38;;;;;;;3.67;3.33;;;;;;;17.48;42.07;99281.66;10316722;28;20229;-65
2023/05/14 19:50:40;;;;;;;4.97;4.07;;;;;;;17.97;42.56;99319.09;10313222;28;20245;-69
2023/05/14 19:55:41;;;;;;;4.60;3.80;;;;;;;16.58;44.12;99294.69;10315964;28;20233;-66
2023/05/14 20:00:43;;;;;;;5.17;4.33;;;;;;;17.03;43.62;99325.66;10311161;28;20787;-65
2023/05/14 20:05:45;;;;;;;4.03;3.70;;;;;;;16.52;44.26;99292.94;10313523;28;20270;-67
2023/05/14 20:10:47;;;;;;;4.10;3.70;;;;;;;15.80;45.60;99291.19;10315038;28;20244;-65
2023/05/14 20:15:49;;;;;;;5.57;3.90;;;;;;;15.98;45.42;99333.47;10291503;28;20244;-68
2023/05/14 20:20:50;;;;;;;4.20;3.80;;;;;;;16.14;45.13;99338.19;10310964;28;20249;-70
2023/05/14 20:25:52;;;;;;;5.50;3.40;;;;;;;15.90;45.10;99329.22;10316861;28;20664;-68
2023/05/14 20:30:54;;;;;;;3.33;3.00;;;;;;;15.95;44.70;99326.66;10314175;28;20225;-67
2023/05/14 20:35:55;;;;;;;3.57;3.20;;;;;;;16.20;44.57;99347.25;10317097;28;20318;-68
2023/05/14 20:40:57;;;;;;;5.33;3.10;;;;;;;15.75;45.45;99326.94;10316538;28;20230;-68
2023/05/14 20:45:59;;;;;;;3.80;3.50;;;;;;;17.59;42.91;99315.13;10314277;28;20225;-68
2023/05/14 20:51:03;;;;;;;4.27;3.87;;;;;;;16.21;44.26;99352.41;10314526;28;20249;-68
2023/05/14 20:56:05;;;;;;;4.00;3.30;;;;;;;15.77;45.48;99356.41;10316928;28;20324;-68
2023/05/14 21:01:08;;;;;;;4.90;3.63;;;;;;;17.24;43.95;99313.38;10311556;28;20229;-67
2023/05/14 21:06:09;;;;;;;4.67;4.10;;;;;;;16.27;44.93;99366.06;10315659;28;20249;-68
2023/05/14 21:11:11;;;;;;;5.37;3.53;;;;;;;16.56;43.71;99357.03;10313972;28;20808;-68
2023/05/14 21:16:13;;;;;;;3.60;3.30;;;;;;;14.90;46.88;99325.13;10308481;28;20210;-68
2023/05/14 21:21:14;;;;;;;3.60;2.97;;;;;;;15.85;45.58;99373.06;10313097;28;20611;-67
2023/05/14 21:26:16;;;;;;;3.63;3.13;;;;;;;15.20;46.00;99349.44;10310943;28;20606;-67
2023/05/14 21:31:17;;;;;;;3.77;3.37;;;;;;;15.32;45.58;99352.19;10306089;28;20241;-67
2023/05/14 21:36:20;;;;;;;3.57;3.27;;;;;;;15.82;45.96;99375.41;10274263;28;20221;-70
2023/05/14 21:41:21;;;;;;;5.17;3.57;;;;;;;14.59;47.19;99334.91;10287171;28;20230;-67
2023/05/14 21:46:23;;;;;;;4.30;3.30;;;;;;;14.89;47.46;99380.03;10286156;28;20658;-68
2023/05/14 21:51:24;;;;;;;3.70;3.40;;;;;;;15.05;46.52;99363.28;10293269;28;20236;-67
2023/05/14 21:56:26;;;;;;;3.50;3.20;;;;;;;15.16;45.96;99367.09;10288657;28;20770;-67
2023/05/14 22:01:28;;;;;;;3.73;3.43;;;;;;;15.63;46.16;99377.34;10290656;28;20414;-67
2023/05/14 22:06:31;;;;;;;3.30;3.10;;;;;;;14.07;47.59;99305.56;10292139;28;20234;-67
2023/05/14 22:11:32;;;;;;;5.00;3.37;;;;;;;13.83;48.52;99342.97;10288124;28;20242;-68
2023/05/14 22:16:34;;;;;;;3.43;3.03;;;;;;;14.53;47.43;99392.34;10287133;28;20617;-67
2023/05/14 22:21:35;;;;;;;3.87;3.47;;;;;;;14.75;47.35;99401.66;10291186;28;20265;-67
2023/05/14 22:26:37;;;;;;;4.83;3.50;;;;;;;16.10;45.29;99376.69;10288600;28;20249;-67
2023/05/14 22:31:39;;;;;;;4.30;3.37;;;;;;;15.07;46.77;99420.47;10283126;28;20756;-70
2023/05/14 22:36:40;;;;;;;3.37;3.00;;;;;;;14.57;47.58;99413.22;10286974;28;20313;-67
2023/05/14 22:41:42;;;;;;;3.43;3.13;;;;;;;16.12;45.54;99388.06;10284371;28;20245;-69
2023/05/14 22:46:44;;;;;;;4.07;3.20;;;;;;;14.90;46.41;99395.16;10279761;28;20653;-68
2023/05/14 22:51:45;;;;;;;3.87;3.47;;;;;;;13.76;48.88;99365.53;10283359;28;20805;-67
2023/05/14 22:56:47;;;;;;;3.30;3.00;;;;;;;14.49;47.52;99420.75;10280738;28;20241;-67
2023/05/14 23:01:49;;;;;;;3.60;3.30;;;;;;;14.20;47.94;99404.19;10285123;28;20296;-68
2023/05/14 23:06:51;;;;;;;4.00;3.30;;;;;;;15.01;47.02;99407.88;10286044;28;20321;-67
2023/05/14 23:11:52;;;;;;;3.70;3.40;;;;;;;14.38;47.83;99412.34;10277218;28;20377;-67
2023/05/14 23:16:54;;;;;;;3.50;3.20;;;;;;;14.64;47.44;99409.66;10285890;28;20234;-67
2023/05/14 23:21:57;;;;;;;3.80;3.40;;;;;;;14.72;46.90;99404.00;10283193;28;20230;-68
2023/05/14 23:26:58;;;;;;;4.10;3.20;;;;;;;14.34;48.00;99404.91;10274524;28;20230;-67
2023/05/14 23:32:00;;;;;;;3.87;3.37;;;;;;;16.08;45.10;99374.22;10265047;28;20242;-68